Time;durP1;ratioP1;P1;durP2;ratioP2;P2;SDS_P1;SDS_P2;PMS_P1;PMS_P2;Temp;Humidity;BMP_temperature;BMP_pressure;BME280_temperature;BME280_humidity;BME280_pressure;Samples;Min_cycle;Max_cycle;Signal;HPM_P1;HPM_P2
2022/03/12 00:21:06;;;;;;;13.57;10.85;;;;;;;;;;4255582;29;20462;-61
2022/03/12 00:23:32;;;;;;;15.60;11.38;;;;;;;;;;4132853;34;20635;-59
2022/03/12 00:25:59;;;;;;;16.95;12.37;;;;;;;;;;4135392;34;20121;-61
2022/03/12 00:28:26;;;;;;;13.90;11.25;;;;;;;;;;4137748;34;20119;-59
2022/03/12 00:30:52;;;;;;;14.43;12.13;;;;;;;;;;4137475;34;20627;-62
2022/03/12 00:33:19;;;;;;;14.40;10.88;;;;;;;;;;4137614;34;20162;-63
2022/03/12 00:35:47;;;;;;;13.00;10.63;;;;;;;;;;4137543;34;20142;-61
2022/03/12 00:38:14;;;;;;;13.48;10.13;;;;;;;;;;4137584;34;20311;-58
2022/03/12 00:40:41;;;;;;;14.45;10.82;;;;;;;;;;4137442;34;20206;-60
2022/03/12 00:43:08;;;;;;;12.77;8.88;;;;;;;;;;4137524;34;20773;-60
2022/03/12 00:45:34;;;;;;;12.37;9.70;;;;;;;;;;4137574;34;20107;-60
2022/03/12 00:48:00;;;;;;;13.75;9.98;;;;;;;;;;4137446;34;20210;-61
2022/03/12 00:50:26;;;;;;;12.27;9.52;;;;;;;;;;4137855;34;20206;-60
2022/03/12 00:52:51;;;;;;;12.37;9.10;;;;;;;;;;4137584;34;20190;-60
2022/03/12 00:55:17;;;;;;;14.02;9.93;;;;;;;;;;4137433;34;20119;-59
2022/03/12 00:57:43;;;;;;;11.93;8.85;;;;;;;;;;4140270;34;20095;-60
2022/03/12 01:00:15;;;;;;;11.25;9.13;;;;;;;;;;4125058;34;20182;-60
2022/03/12 01:02:41;;;;;;;12.00;9.50;;;;;;;;;;4144321;34;20117;-59
2022/03/12 01:05:08;;;;;;;12.98;9.88;;;;;;;;;;4125063;34;20096;-59
2022/03/12 01:07:34;;;;;;;15.13;9.57;;;;;;;;;;4137383;34;20094;-60
2022/03/12 01:10:00;;;;;;;10.85;9.02;;;;;;;;;;4137250;34;20123;-60
2022/03/12 01:12:26;;;;;;;11.88;8.68;;;;;;;;;;4137227;34;20123;-61
2022/03/12 01:14:52;;;;;;;14.35;9.55;;;;;;;;;;4137528;34;20131;-60
2022/03/12 01:17:19;;;;;;;13.65;9.40;;;;;;;;;;4137219;34;20531;-60
2022/03/12 01:19:45;;;;;;;11.18;8.82;;;;;;;;;;4137259;34;20114;-60
2022/03/12 01:22:19;;;;;;;13.52;9.73;;;;;;;;;;4137232;34;20122;-59
2022/03/12 01:24:49;;;;;;;12.43;9.88;;;;;;;;;;4133183;34;20112;-58
2022/03/12 01:27:15;;;;;;;13.05;9.88;;;;;;;;;;4134967;34;20562;-59
2022/03/12 01:29:45;;;;;;;13.95;9.68;;;;;;;;;;4137126;34;20103;-60
2022/03/12 01:32:11;;;;;;;13.35;10.00;;;;;;;;;;4124709;34;20216;-60
2022/03/12 01:34:37;;;;;;;14.05;9.68;;;;;;;;;;4124894;34;20119;-60
2022/03/12 01:37:04;;;;;;;14.87;10.32;;;;;;;;;;4137314;34;20137;-60
2022/03/12 01:39:30;;;;;;;15.60;10.13;;;;;;;;;;4131014;34;20159;-59
2022/03/12 01:41:56;;;;;;;12.05;10.13;;;;;;;;;;4123963;34;20148;-60
2022/03/12 01:44:22;;;;;;;14.20;10.55;;;;;;;;;;4123750;34;20155;-60
2022/03/12 01:46:49;;;;;;;11.98;9.13;;;;;;;;;;4123834;34;20095;-59
2022/03/12 01:49:23;;;;;;;12.25;8.90;;;;;;;;;;4124001;34;20214;-59
2022/03/12 01:51:53;;;;;;;12.23;8.65;;;;;;;;;;4123680;34;20099;-60
2022/03/12 01:54:25;;;;;;;11.88;9.50;;;;;;;;;;4122264;34;20104;-59
2022/03/12 01:56:53;;;;;;;15.90;9.52;;;;;;;;;;4123647;34;20613;-60
2022/03/12 01:59:20;;;;;;;12.27;9.55;;;;;;;;;;4123584;34;20125;-59
2022/03/12 02:01:50;;;;;;;13.45;9.32;;;;;;;;;;4123838;34;20100;-60
2022/03/12 02:04:17;;;;;;;11.50;8.57;;;;;;;;;;4123522;34;20107;-59
2022/03/12 02:06:43;;;;;;;13.80;9.23;;;;;;;;;;4134839;34;20212;-60
2022/03/12 02:09:14;;;;;;;13.30;9.00;;;;;;;;;;4136821;34;20541;-61
2022/03/12 02:11:41;;;;;;;14.13;9.07;;;;;;;;;;4137023;34;20118;-61
2022/03/12 02:14:12;;;;;;;14.35;8.38;;;;;;;;;;4136802;34;20122;-61
2022/03/12 02:16:44;;;;;;;14.32;9.32;;;;;;;;;;4136750;34;20135;-61
2022/03/12 02:19:10;;;;;;;14.70;8.75;;;;;;;;;;4140906;34;20170;-62
2022/03/12 02:21:41;;;;;;;13.98;9.38;;;;;;;;;;4150160;34;20546;-61
2022/03/12 02:24:08;;;;;;;11.57;8.77;;;;;;;;;;4150383;34;20107;-61
2022/03/12 02:26:34;;;;;;;11.52;9.23;;;;;;;;;;4150141;34;20129;-61
2022/03/12 02:29:00;;;;;;;12.52;9.52;;;;;;;;;;4150147;34;20215;-61
2022/03/12 02:31:26;;;;;;;11.57;8.85;;;;;;;;;;4150368;34;20229;-61
2022/03/12 02:33:55;;;;;;;14.20;9.32;;;;;;;;;;4150281;34;20111;-61
2022/03/12 02:36:24;;;;;;;11.73;8.98;;;;;;;;;;4150054;34;20118;-60
2022/03/12 02:38:50;;;;;;;13.88;9.25;;;;;;;;;;4149084;34;20084;-60
2022/03/12 02:41:20;;;;;;;13.95;9.27;;;;;;;;;;4136763;34;20190;-60
2022/03/12 02:43:46;;;;;;;12.32;8.95;;;;;;;;;;4136809;34;20134;-60
2022/03/12 02:46:15;;;;;;;16.33;10.00;;;;;;;;;;4136566;34;20555;-60
2022/03/12 02:48:49;;;;;;;13.82;9.45;;;;;;;;;;4136812;34;20114;-60
2022/03/12 02:51:16;;;;;;;15.00;9.30;;;;;;;;;;4136630;34;20534;-60
2022/03/12 02:53:43;;;;;;;13.70;9.57;;;;;;;;;;4136743;34;20115;-60
2022/03/12 02:56:11;;;;;;;12.55;10.00;;;;;;;;;;4145357;34;20225;-60
2022/03/12 02:58:37;;;;;;;12.57;9.80;;;;;;;;;;4137749;34;20122;-60
2022/03/12 03:01:04;;;;;;;14.35;9.80;;;;;;;;;;4144799;34;20218;-61
2022/03/12 03:03:34;;;;;;;13.62;9.95;;;;;;;;;;4127558;34;20131;-60
2022/03/12 03:06:00;;;;;;;12.82;10.05;;;;;;;;;;4142662;34;20095;-60
2022/03/12 03:08:26;;;;;;;14.60;11.68;;;;;;;;;;4136493;34;20440;-61
2022/03/12 03:10:54;;;;;;;13.93;9.65;;;;;;;;;;4136277;34;20126;-60
2022/03/12 03:13:21;;;;;;;15.38;10.98;;;;;;;;;;4136646;34;20118;-60
2022/03/12 03:15:47;;;;;;;13.48;9.98;;;;;;;;;;4135025;34;20099;-61
2022/03/12 03:18:15;;;;;;;17.70;10.80;;;;;;;;;;4141837;34;20098;-61
2022/03/12 03:20:42;;;;;;;15.00;10.25;;;;;;;;;;4149622;34;20451;-59
2022/03/12 03:23:09;;;;;;;18.52;11.10;;;;;;;;;;4149570;34;20136;-60
2022/03/12 03:25:38;;;;;;;19.05;11.98;;;;;;;;;;4149607;34;20114;-61
2022/03/12 03:28:05;;;;;;;16.08;11.45;;;;;;;;;;4149621;34;20099;-60
2022/03/12 03:30:34;;;;;;;16.25;11.77;;;;;;;;;;4149423;34;20629;-61
2022/03/12 03:33:01;;;;;;;16.08;10.93;;;;;;;;;;4149583;34;20111;-60
2022/03/12 03:35:27;;;;;;;15.43;11.05;;;;;;;;;;4149635;34;20130;-61
2022/03/12 03:37:53;;;;;;;17.80;12.00;;;;;;;;;;4149736;34;20115;-60
2022/03/12 03:40:19;;;;;;;14.73;10.45;;;;;;;;;;4149556;34;20135;-60
2022/03/12 03:42:45;;;;;;;16.12;11.18;;;;;;;;;;4149465;34;20122;-60
2022/03/12 03:45:21;;;;;;;15.10;11.30;;;;;;;;;;4149307;34;20210;-59
2022/03/12 03:47:48;;;;;;;15.73;10.43;;;;;;;;;;4149377;34;20103;-60
2022/03/12 03:50:14;;;;;;;13.70;10.38;;;;;;;;;;4137497;34;20207;-60
2022/03/12 03:52:40;;;;;;;13.55;9.88;;;;;;;;;;4151673;34;20464;-60
2022/03/12 03:55:07;;;;;;;14.75;10.27;;;;;;;;;;4151336;34;20125;-59
2022/03/12 03:57:33;;;;;;;16.02;10.88;;;;;;;;;;4151363;34;20239;-60
2022/03/12 03:59:59;;;;;;;15.45;10.98;;;;;;;;;;4150137;34;20475;-60
2022/03/12 04:02:25;;;;;;;14.43;10.60;;;;;;;;;;4138361;34;20130;-61
2022/03/12 04:04:53;;;;;;;16.12;11.45;;;;;;;;;;4148757;34;20141;-61
2022/03/12 04:07:19;;;;;;;14.40;10.15;;;;;;;;;;4137883;34;20129;-60
2022/03/12 04:09:45;;;;;;;14.60;11.27;;;;;;;;;;4143621;34;20502;-61
2022/03/12 04:12:11;;;;;;;14.82;10.07;;;;;;;;;;4151352;34;20197;-61
2022/03/12 04:14:37;;;;;;;17.30;11.77;;;;;;;;;;4151144;34;20114;-61
2022/03/12 04:17:05;;;;;;;18.40;11.02;;;;;;;;;;4151350;34;20099;-62
2022/03/12 04:19:34;;;;;;;15.95;11.12;;;;;;;;;;4138911;34;20530;-61
2022/03/12 04:22:01;;;;;;;18.42;12.50;;;;;;;;;;4151462;34;20098;-61
2022/03/12 04:24:27;;;;;;;18.58;12.25;;;;;;;;;;4151590;34;20561;-61
2022/03/12 04:26:53;;;;;;;18.12;14.75;;;;;;;;;;4151493;34;20511;-61
2022/03/12 04:29:19;;;;;;;16.70;12.23;;;;;;;;;;4151522;34;20570;-61
2022/03/12 04:31:47;;;;;;;17.40;12.95;;;;;;;;;;4138722;34;20082;-61
2022/03/12 04:34:13;;;;;;;19.25;11.27;;;;;;;;;;4151290;34;20108;-62
2022/03/12 04:36:46;;;;;;;18.08;11.65;;;;;;;;;;4151103;34;20121;-61
2022/03/12 04:39:12;;;;;;;16.35;11.90;;;;;;;;;;4150903;34;20122;-61
2022/03/12 04:41:40;;;;;;;17.65;11.85;;;;;;;;;;4151091;34;20095;-61
2022/03/12 04:44:07;;;;;;;15.43;11.63;;;;;;;;;;4150886;34;20140;-61
2022/03/12 04:46:34;;;;;;;18.15;11.50;;;;;;;;;;4150904;34;20523;-63
2022/03/12 04:49:00;;;;;;;19.50;11.82;;;;;;;;;;4150804;34;20127;-60
2022/03/12 04:51:28;;;;;;;14.43;11.30;;;;;;;;;;4150810;34;20475;-60
2022/03/12 04:53:58;;;;;;;15.45;11.02;;;;;;;;;;4150832;34;20131;-60
2022/03/12 04:56:25;;;;;;;14.77;12.50;;;;;;;;;;4150780;34;20200;-61
2022/03/12 04:58:53;;;;;;;15.77;12.68;;;;;;;;;;4150766;34;20569;-61
2022/03/12 05:01:24;;;;;;;16.85;12.35;;;;;;;;;;4138054;34;20107;-59
2022/03/12 05:03:50;;;;;;;16.95;12.35;;;;;;;;;;4150897;34;20118;-60
2022/03/12 05:06:18;;;;;;;18.15;13.77;;;;;;;;;;4142453;34;20088;-60
2022/03/12 05:08:45;;;;;;;16.45;14.38;;;;;;;;;;4137566;34;20095;-60
2022/03/12 05:11:11;;;;;;;25.55;15.40;;;;;;;;;;4124841;34;20108;-60
2022/03/12 05:13:37;;;;;;;17.90;15.43;;;;;;;;;;4137265;34;20280;-61
2022/03/12 05:16:06;;;;;;;20.17;14.98;;;;;;;;;;4136677;34;20111;-61
2022/03/12 05:18:33;;;;;;;19.35;12.88;;;;;;;;;;4135768;34;20099;-59
2022/03/12 05:21:00;;;;;;;17.67;11.82;;;;;;;;;;4137191;34;20216;-61
2022/03/12 05:23:26;;;;;;;13.68;10.20;;;;;;;;;;4139139;34;20212;-60
2022/03/12 05:25:52;;;;;;;15.07;9.73;;;;;;;;;;4142238;34;20191;-61
2022/03/12 05:28:29;;;;;;;15.85;10.25;;;;;;;;;;4137273;34;20546;-61
2022/03/12 05:30:57;;;;;;;11.43;9.52;;;;;;;;;;4123931;34;20217;-61
2022/03/12 05:33:23;;;;;;;14.02;9.35;;;;;;;;;;4131115;34;20448;-61
2022/03/12 05:35:51;;;;;;;16.90;10.07;;;;;;;;;;4137934;34;20219;-60
2022/03/12 05:38:17;;;;;;;13.73;10.18;;;;;;;;;;4150721;34;20109;-60
2022/03/12 05:40:43;;;;;;;12.75;10.13;;;;;;;;;;4150608;34;20562;-61
2022/03/12 05:43:13;;;;;;;14.00;9.50;;;;;;;;;;4139665;34;20119;-60
2022/03/12 05:45:39;;;;;;;11.48;10.18;;;;;;;;;;4137258;34;20095;-64
2022/03/12 05:48:08;;;;;;;13.77;9.70;;;;;;;;;;4113412;34;20634;-65
2022/03/12 05:50:34;;;;;;;14.13;10.73;;;;;;;;;;4137124;34;20524;-62
2022/03/12 05:53:01;;;;;;;16.42;9.50;;;;;;;;;;4137006;34;20107;-61
2022/03/12 05:55:27;;;;;;;14.55;10.80;;;;;;;;;;4135159;34;20099;-62
2022/03/12 05:57:53;;;;;;;15.95;10.77;;;;;;;;;;4150653;34;20098;-61
2022/03/12 06:00:19;;;;;;;21.58;12.55;;;;;;;;;;4150264;34;20536;-61
2022/03/12 06:02:52;;;;;;;17.85;11.93;;;;;;;;;;4137863;34;20098;-60
2022/03/12 06:05:24;;;;;;;18.62;11.93;;;;;;;;;;4138983;34;20123;-61
2022/03/12 06:07:51;;;;;;;16.58;11.57;;;;;;;;;;4136846;34;20090;-62
2022/03/12 06:10:20;;;;;;;15.73;11.05;;;;;;;;;;4136819;34;20483;-62
2022/03/12 06:12:46;;;;;;;13.15;10.80;;;;;;;;;;4123838;34;20110;-63
2022/03/12 06:15:16;;;;;;;13.30;10.80;;;;;;;;;;4136714;34;20554;-63
2022/03/12 06:17:44;;;;;;;13.62;10.80;;;;;;;;;;4137110;34;20099;-62
2022/03/12 06:20:10;;;;;;;13.25;9.57;;;;;;;;;;4136621;34;20547;-63
2022/03/12 06:22:37;;;;;;;11.63;10.02;;;;;;;;;;4136743;34;20131;-63
2022/03/12 06:25:05;;;;;;;15.10;10.45;;;;;;;;;;4136700;34;20112;-64
2022/03/12 06:27:31;;;;;;;14.18;10.15;;;;;;;;;;4136898;34;20111;-66
2022/03/12 06:29:57;;;;;;;15.25;11.68;;;;;;;;;;4124260;34;20220;-65
2022/03/12 06:32:23;;;;;;;17.02;10.38;;;;;;;;;;4136791;34;20099;-63
2022/03/12 06:34:49;;;;;;;17.85;13.77;;;;;;;;;;4137252;34;20114;-63
2022/03/12 06:37:15;;;;;;;13.88;11.45;;;;;;;;;;4123829;34;20095;-62
2022/03/12 06:39:42;;;;;;;13.85;10.10;;;;;;;;;;4136940;34;20200;-61
2022/03/12 06:42:08;;;;;;;11.57;9.48;;;;;;;;;;4136936;34;20208;-61
2022/03/12 06:44:36;;;;;;;13.05;9.82;;;;;;;;;;4137127;34;20524;-64
2022/03/12 06:47:09;;;;;;;11.95;8.73;;;;;;;;;;4136798;34;20516;-62
2022/03/12 06:49:39;;;;;;;11.70;8.70;;;;;;;;;;4136964;34;20127;-62
2022/03/12 06:52:06;;;;;;;12.82;9.25;;;;;;;;;;4099507;34;20230;-61
2022/03/12 06:54:33;;;;;;;15.45;8.77;;;;;;;;;;4134894;34;20120;-61
2022/03/12 06:57:01;;;;;;;13.52;8.55;;;;;;;;;;4124117;34;20099;-63
2022/03/12 06:59:27;;;;;;;10.82;8.52;;;;;;;;;;4136320;34;20123;-62
2022/03/12 07:01:53;;;;;;;10.25;8.77;;;;;;;;;;4136705;34;20223;-63
2022/03/12 07:04:21;;;;;;;11.77;7.75;;;;;;;;;;4136648;34;20120;-63
2022/03/12 07:06:51;;;;;;;14.15;9.57;;;;;;;;;;4113008;34;20099;-57
2022/03/12 07:09:17;;;;;;;11.80;9.25;;;;;;;;;;4123941;34;20566;-59
2022/03/12 07:11:43;;;;;;;12.20;9.75;;;;;;;;;;4136587;34;20122;-59
2022/03/12 07:14:10;;;;;;;14.07;11.20;;;;;;;;;;4136229;34;20119;-60
2022/03/12 07:16:36;;;;;;;13.95;11.68;;;;;;;;;;4136314;34;20142;-60
2022/03/12 07:19:02;;;;;;;13.90;11.00;;;;;;;;;;4123631;34;20142;-60
2022/03/12 07:21:28;;;;;;;13.38;10.05;;;;;;;;;;4136236;34;20599;-59
2022/03/12 07:23:55;;;;;;;13.93;10.05;;;;;;;;;;4135456;34;20504;-61
2022/03/12 07:26:21;;;;;;;18.10;10.80;;;;;;;;;;4136038;34;20092;-61
2022/03/12 07:28:50;;;;;;;14.60;10.60;;;;;;;;;;4136120;34;20125;-59
2022/03/12 07:31:16;;;;;;;16.08;9.55;;;;;;;;;;4136220;34;20126;-60
2022/03/12 07:33:44;;;;;;;14.82;9.60;;;;;;;;;;4136095;34;20123;-60
2022/03/12 07:36:11;;;;;;;14.70;9.48;;;;;;;;;;4136032;34;20213;-58
2022/03/12 07:38:37;;;;;;;13.10;9.45;;;;;;;;;;4134692;34;20132;-61
2022/03/12 07:41:03;;;;;;;11.63;9.07;;;;;;;;;;4140161;34;20127;-61
2022/03/12 07:43:29;;;;;;;13.75;10.05;;;;;;;;;;4144779;34;20476;-61
2022/03/12 07:45:56;;;;;;;15.73;9.80;;;;;;;;;;4149116;34;20111;-61
2022/03/12 07:48:22;;;;;;;12.88;9.52;;;;;;;;;;4149705;34;20099;-60
2022/03/12 07:50:49;;;;;;;12.05;8.93;;;;;;;;;;4149267;34;20226;-62
2022/03/12 07:53:15;;;;;;;13.52;9.95;;;;;;;;;;4125808;34;20091;-60
2022/03/12 07:55:41;;;;;;;12.00;9.07;;;;;;;;;;4126469;34;20198;-60
2022/03/12 07:58:08;;;;;;;14.50;8.80;;;;;;;;;;4135892;34;20095;-63
2022/03/12 08:00:34;;;;;;;12.77;9.00;;;;;;;;;;4135481;34;20103;-64
2022/03/12 08:03:00;;;;;;;13.98;9.23;;;;;;;;;;4135600;34;20445;-63
2022/03/12 08:05:26;;;;;;;16.33;9.82;;;;;;;;;;4134232;34;20437;-62
2022/03/12 08:07:56;;;;;;;12.80;9.02;;;;;;;;;;4135445;34;20118;-63
2022/03/12 08:10:22;;;;;;;13.00;9.70;;;;;;;;;;4135599;34;20100;-62
2022/03/12 08:12:50;;;;;;;16.73;11.43;;;;;;;;;;4136028;34;20107;-65
2022/03/12 08:15:17;;;;;;;14.48;10.20;;;;;;;;;;4112432;34;20614;-64
2022/03/12 08:17:44;;;;;;;13.95;9.90;;;;;;;;;;4135653;34;20675;-66
2022/03/12 08:20:10;;;;;;;13.68;9.13;;;;;;;;;;4135623;34;20917;-66
2022/03/12 08:22:41;;;;;;;15.25;8.95;;;;;;;;;;4123198;34;20115;-67
2022/03/12 08:25:09;;;;;;;14.02;9.13;;;;;;;;;;4123524;34;20513;-65
2022/03/12 08:27:37;;;;;;;12.48;9.82;;;;;;;;;;4111583;34;20110;-66
2022/03/12 08:30:08;;;;;;;12.07;9.32;;;;;;;;;;4123111;34;20123;-66
2022/03/12 08:32:36;;;;;;;12.07;8.73;;;;;;;;;;4135595;34;20092;-65
2022/03/12 08:35:05;;;;;;;12.25;8.18;;;;;;;;;;4135262;34;20107;-62
2022/03/12 08:37:33;;;;;;;14.13;8.95;;;;;;;;;;4137042;34;20122;-62
2022/03/12 08:40:20;;;;;;;12.02;8.95;;;;;;;;;;4127271;34;20115;-62
2022/03/12 08:42:46;;;;;;;16.90;9.23;;;;;;;;;;4137555;34;20134;-63
2022/03/12 08:45:12;;;;;;;13.40;10.15;;;;;;;;;;4137736;34;20500;-63
2022/03/12 08:47:40;;;;;;;12.48;9.05;;;;;;;;;;4125062;34;20099;-62
2022/03/12 08:50:08;;;;;;;11.50;9.57;;;;;;;;;;4125015;34;20115;-64
2022/03/12 08:52:35;;;;;;;12.00;9.80;;;;;;;;;;4137096;34;20118;-63
2022/03/12 08:55:02;;;;;;;19.83;12.60;;;;;;;;;;4137349;34;20174;-64
2022/03/12 08:57:28;;;;;;;15.35;10.57;;;;;;;;;;4137531;34;20532;-64
2022/03/12 08:59:54;;;;;;;12.48;8.98;;;;;;;;;;4137443;34;20122;-64
2022/03/12 09:02:23;;;;;;;13.55;8.65;;;;;;;;;;4137567;34;20565;-62
2022/03/12 09:04:50;;;;;;;11.45;7.87;;;;;;;;;;4124907;34;20543;-63
2022/03/12 09:07:16;;;;;;;10.90;8.00;;;;;;;;;;4137255;34;20110;-63
2022/03/12 09:09:42;;;;;;;10.05;7.97;;;;;;;;;;4137376;34;20521;-62
2022/03/12 09:12:08;;;;;;;11.20;8.48;;;;;;;;;;4137116;34;20205;-63
2022/03/12 09:14:35;;;;;;;11.48;8.40;;;;;;;;;;4136504;34;20130;-62
2022/03/12 09:17:02;;;;;;;10.88;8.07;;;;;;;;;;4132723;34;20127;-62
2022/03/12 09:19:28;;;;;;;10.82;8.02;;;;;;;;;;4129910;34;20200;-64
2022/03/12 09:21:56;;;;;;;11.95;8.68;;;;;;;;;;4129411;34;20571;-61
2022/03/12 09:24:22;;;;;;;11.25;8.20;;;;;;;;;;4128686;34;20484;-61
2022/03/12 09:26:48;;;;;;;13.05;8.27;;;;;;;;;;4129778;34;20115;-59
2022/03/12 09:29:15;;;;;;;12.23;7.70;;;;;;;;;;4133407;34;20468;-61
2022/03/12 09:31:41;;;;;;;12.02;8.30;;;;;;;;;;4131826;34;20119;-62
2022/03/12 09:34:08;;;;;;;17.35;9.65;;;;;;;;;;4129877;34;20138;-61
2022/03/12 09:36:34;;;;;;;16.37;10.85;;;;;;;;;;4129700;34;20114;-61
2022/03/12 09:39:03;;;;;;;16.25;9.88;;;;;;;;;;4128647;34;20570;-60
2022/03/12 09:41:29;;;;;;;14.10;9.90;;;;;;;;;;4129432;34;20119;-60
2022/03/12 09:43:56;;;;;;;12.90;8.82;;;;;;;;;;4106179;34;20115;-60
2022/03/12 09:46:22;;;;;;;12.45;8.85;;;;;;;;;;4128436;34;20184;-64
2022/03/12 09:48:48;;;;;;;11.88;9.00;;;;;;;;;;4116984;34;20508;-64
2022/03/12 09:51:14;;;;;;;15.32;10.15;;;;;;;;;;4131358;34;20119;-64
2022/03/12 09:53:41;;;;;;;14.25;9.98;;;;;;;;;;4135778;34;20653;-64
2022/03/12 09:56:07;;;;;;;12.80;9.75;;;;;;;;;;4133425;34;20118;-64
2022/03/12 09:58:33;;;;;;;10.90;9.02;;;;;;;;;;4128667;34;20131;-64
2022/03/12 10:00:59;;;;;;;11.68;9.15;;;;;;;;;;4132196;34;20213;-65
2022/03/12 10:03:26;;;;;;;14.05;10.07;;;;;;;;;;4136542;34;20103;-64
2022/03/12 10:05:52;;;;;;;12.35;8.48;;;;;;;;;;4130449;34;20603;-65
2022/03/12 10:08:18;;;;;;;14.30;9.43;;;;;;;;;;4130664;34;20097;-65
2022/03/12 10:10:44;;;;;;;16.00;8.88;;;;;;;;;;4130234;34;20108;-65
2022/03/12 10:13:11;;;;;;;10.88;8.00;;;;;;;;;;4135490;34;20103;-65
2022/03/12 10:15:37;;;;;;;13.55;8.38;;;;;;;;;;4136246;34;20096;-65
2022/03/12 10:18:03;;;;;;;10.88;8.60;;;;;;;;;;4136419;34;20127;-64
2022/03/12 10:20:30;;;;;;;10.45;8.10;;;;;;;;;;4136252;34;20143;-64
2022/03/12 10:22:57;;;;;;;11.60;8.45;;;;;;;;;;4124201;34;20091;-64
2022/03/12 10:25:23;;;;;;;12.80;8.15;;;;;;;;;;4123185;34;20119;-63
2022/03/12 10:27:50;;;;;;;11.23;7.72;;;;;;;;;;4136717;34;20130;-64
2022/03/12 10:30:16;;;;;;;12.40;7.57;;;;;;;;;;4123707;34;20500;-62
2022/03/12 10:32:47;;;;;;;13.30;7.95;;;;;;;;;;4136699;34;20524;-65
2022/03/12 10:35:15;;;;;;;10.85;7.60;;;;;;;;;;4136607;34;20115;-64
2022/03/12 10:37:41;;;;;;;10.20;7.35;;;;;;;;;;4136698;34;20127;-64
2022/03/12 10:40:10;;;;;;;11.48;7.55;;;;;;;;;;4136691;34;20549;-64
2022/03/12 10:42:44;;;;;;;13.07;7.97;;;;;;;;;;4136558;34;20195;-61
2022/03/12 10:45:13;;;;;;;11.27;7.97;;;;;;;;;;4139369;34;20218;-62
2022/03/12 10:47:41;;;;;;;10.18;7.40;;;;;;;;;;4138501;34;20235;-65
2022/03/12 10:50:11;;;;;;;11.12;8.27;;;;;;;;;;4139283;34;20109;-58
2022/03/12 10:52:43;;;;;;;12.93;7.62;;;;;;;;;;4124980;34;20115;-60
2022/03/12 10:55:16;;;;;;;11.73;8.13;;;;;;;;;;4139828;34;20210;-60
2022/03/12 10:57:56;;;;;;;10.65;8.48;;;;;;;;;;4137211;34;20111;-60
2022/03/12 11:00:30;;;;;;;12.90;9.45;;;;;;;;;;4146546;34;20155;-60
2022/03/12 11:02:58;;;;;;;9.60;8.02;;;;;;;;;;4133800;34;20142;-60
2022/03/12 11:05:35;;;;;;;10.98;8.45;;;;;;;;;;4136042;34;20178;-60
2022/03/12 11:08:17;;;;;;;11.65;8.43;;;;;;;;;;4136143;34;20103;-62
2022/03/12 11:11:16;;;;;;;13.23;8.75;;;;;;;;;;4136216;34;20243;-60
2022/03/12 11:13:50;;;;;;;11.35;7.93;;;;;;;;;;4099564;34;20104;-59
2022/03/12 11:16:28;;;;;;;10.98;8.85;;;;;;;;;;4136246;34;20503;-60
2022/03/12 11:19:10;;;;;;;10.93;7.90;;;;;;;;;;4130236;34;20131;-64
2022/03/12 11:21:41;;;;;;;12.40;7.90;;;;;;;;;;4136305;34;20106;-68
2022/03/12 11:24:13;;;;;;;10.43;8.65;;;;;;;;;;4129417;34;20182;-74
2022/03/12 11:26:45;;;;;;;12.02;7.70;;;;;;;;;;4132082;34;20092;-59
2022/03/12 11:29:12;;;;;;;10.20;7.87;;;;;;;;;;4145714;34;20597;-59
2022/03/12 11:32:05;;;;;;;10.98;9.13;;;;;;;;;;4149635;34;20236;-59
2022/03/12 11:34:41;;;;;;;12.25;8.73;;;;;;;;;;4147428;34;20126;-58
2022/03/12 11:37:12;;;;;;;10.20;8.93;;;;;;;;;;4137096;34;20119;-57
2022/03/12 11:39:41;;;;;;;12.13;9.20;;;;;;;;;;4149424;34;20118;-61
2022/03/12 11:42:15;;;;;;;11.90;8.90;;;;;;;;;;4149383;34;20108;-58
2022/03/12 11:44:45;;;;;;;11.85;9.30;;;;;;;;;;4137853;34;20138;-60
2022/03/12 11:47:12;;;;;;;13.52;10.13;;;;;;;;;;4149342;34;20515;-60
2022/03/12 11:49:39;;;;;;;14.57;10.90;;;;;;;;;;4149332;34;20193;-60
2022/03/12 11:52:05;;;;;;;13.27;10.35;;;;;;;;;;4149488;34;20111;-61
2022/03/12 11:54:32;;;;;;;12.45;9.80;;;;;;;;;;4149646;34;20112;-60
2022/03/12 11:56:59;;;;;;;15.93;9.43;;;;;;;;;;4149266;34;20126;-62
2022/03/12 11:59:26;;;;;;;9.38;8.38;;;;;;;;;;4137088;34;20115;-59
2022/03/12 12:02:02;;;;;;;11.25;8.82;;;;;;;;;;4149335;34;20235;-59
2022/03/12 12:04:32;;;;;;;13.05;9.63;;;;;;;;;;4136967;34;20198;-59
2022/03/12 12:07:01;;;;;;;11.43;9.23;;;;;;;;;;4137173;34;20334;-59
2022/03/12 12:09:29;;;;;;;14.85;8.98;;;;;;;;;;4135532;34;20201;-60
2022/03/12 12:11:55;;;;;;;10.35;8.23;;;;;;;;;;4136321;34;20115;-59
2022/03/12 12:14:21;;;;;;;13.05;8.32;;;;;;;;;;4138000;34;20115;-59
2022/03/12 12:16:47;;;;;;;11.90;9.43;;;;;;;;;;4124817;34;20115;-59
2022/03/12 12:19:14;;;;;;;11.32;9.75;;;;;;;;;;4137502;34;20457;-60
2022/03/12 12:21:40;;;;;;;12.60;9.65;;;;;;;;;;4137648;34;20111;-59
2022/03/12 12:24:24;;;;;;;11.48;8.27;;;;;;;;;;4137818;34;20127;-59
2022/03/12 12:27:18;;;;;;;11.35;8.25;;;;;;;;;;4137904;34;20119;-59
2022/03/12 12:29:50;;;;;;;11.50;8.30;;;;;;;;;;4135513;34;20127;-60
2022/03/12 12:32:23;;;;;;;14.05;9.07;;;;;;;;;;4137644;34;20123;-61
2022/03/12 12:35:09;;;;;;;14.80;8.43;;;;;;;;;;4137089;34;20472;-61
2022/03/12 12:37:59;;;;;;;11.38;8.55;;;;;;;;;;4137655;34;20444;-61
2022/03/12 12:40:27;;;;;;;10.35;7.68;;;;;;;;;;4118714;34;20118;-62
2022/03/12 12:42:56;;;;;;;10.60;7.80;;;;;;;;;;4137518;34;20111;-67
2022/03/12 12:45:26;;;;;;;13.30;8.38;;;;;;;;;;4137650;34;20196;-68
2022/03/12 12:48:31;;;;;;;12.70;9.57;;;;;;;;;;4125294;34;20103;-67
2022/03/12 12:51:15;;;;;;;9.25;7.68;;;;;;;;;;4132017;34;20083;-64
2022/03/12 12:54:08;;;;;;;10.57;7.95;;;;;;;;;;4137897;34;20111;-66
2022/03/12 12:56:36;;;;;;;13.38;7.90;;;;;;;;;;4122039;34;20122;-66
2022/03/12 12:59:04;;;;;;;11.48;7.60;;;;;;;;;;4124052;34;20112;-62
2022/03/12 13:01:39;;;;;;;12.73;8.57;;;;;;;;;;4148778;34;20451;-64
2022/03/12 13:04:09;;;;;;;12.60;7.72;;;;;;;;;;4144114;34;20515;-63
2022/03/12 13:06:40;;;;;;;12.65;8.23;;;;;;;;;;4124659;34;20146;-63
2022/03/12 13:09:10;;;;;;;13.77;8.35;;;;;;;;;;4137555;34;20135;-65
2022/03/12 13:11:40;;;;;;;10.88;5.05;;;;;;;;;;4124637;34;20650;-68
2022/03/12 13:14:09;;;;;;;5.50;3.30;;;;;;;;;;4135205;34;20480;-63
2022/03/12 13:16:57;;;;;;;9.30;7.55;;;;;;;;;;4137437;34;20107;-64
2022/03/12 13:19:35;;;;;;;12.37;8.50;;;;;;;;;;4137201;34;20120;-63
2022/03/12 13:22:08;;;;;;;9.90;7.80;;;;;;;;;;4136971;34;20531;-64
2022/03/12 13:24:44;;;;;;;10.07;7.90;;;;;;;;;;4135268;34;20207;-63
2022/03/12 13:27:20;;;;;;;10.73;7.80;;;;;;;;;;4135502;34;20092;-66
2022/03/12 13:29:47;;;;;;;11.27;7.75;;;;;;;;;;4139024;34;20219;-65
2022/03/12 13:32:22;;;;;;;10.13;8.13;;;;;;;;;;4139129;34;20104;-65
2022/03/12 13:34:49;;;;;;;12.23;8.95;;;;;;;;;;4136484;34;20134;-64
2022/03/12 13:37:15;;;;;;;13.93;8.63;;;;;;;;;;4138048;34;20215;-64
2022/03/12 13:39:41;;;;;;;12.55;5.37;;;;;;;;;;4137337;34;20531;-63
2022/03/12 13:42:08;;;;;;;9.85;5.87;;;;;;;;;;4137356;34;20099;-64
2022/03/12 13:44:34;;;;;;;9.98;5.28;;;;;;;;;;4137404;34;20192;-65
2022/03/12 13:47:01;;;;;;;8.18;5.50;;;;;;;;;;4137230;34;20096;-66
2022/03/12 13:49:27;;;;;;;11.43;6.90;;;;;;;;;;4137085;34;20141;-65
2022/03/12 13:51:54;;;;;;;10.82;6.78;;;;;;;;;;4124816;34;20118;-67
2022/03/12 13:54:25;;;;;;;11.23;7.05;;;;;;;;;;4124841;34;20219;-65
2022/03/12 13:56:52;;;;;;;13.52;7.43;;;;;;;;;;4113901;34;20147;-66
2022/03/12 13:59:27;;;;;;;13.52;7.75;;;;;;;;;;4102968;34;20489;-65
2022/03/12 14:01:54;;;;;;;12.82;7.55;;;;;;;;;;4136954;34;20445;-65
2022/03/12 14:04:24;;;;;;;16.48;7.80;;;;;;;;;;4136826;34;20480;-64
2022/03/12 14:06:50;;;;;;;10.60;8.73;;;;;;;;;;4136741;34;20314;-64
2022/03/12 14:09:17;;;;;;;12.93;10.30;;;;;;;;;;4136796;34;20115;-64
2022/03/12 14:11:47;;;;;;;12.77;10.30;;;;;;;;;;4136913;34;20116;-65
2022/03/12 14:14:15;;;;;;;15.20;10.30;;;;;;;;;;4136810;34;20123;-65
2022/03/12 14:16:45;;;;;;;19.83;10.88;;;;;;;;;;4124414;34;20098;-63
2022/03/12 14:19:13;;;;;;;17.87;10.60;;;;;;;;;;4124683;34;20207;-63
2022/03/12 14:21:44;;;;;;;16.98;11.85;;;;;;;;;;4137167;34;20136;-64
2022/03/12 14:24:13;;;;;;;14.25;11.20;;;;;;;;;;4136871;34;20118;-64
2022/03/12 14:27:01;;;;;;;15.57;13.18;;;;;;;;;;4136940;34;20111;-64
2022/03/12 14:29:36;;;;;;;17.75;11.90;;;;;;;;;;4128268;34;20112;-64
2022/03/12 14:32:05;;;;;;;17.48;12.00;;;;;;;;;;4132465;34;20130;-67
2022/03/12 14:34:32;;;;;;;15.35;11.88;;;;;;;;;;4123144;34;20110;-68
2022/03/12 14:37:00;;;;;;;16.02;12.18;;;;;;;;;;4121742;34;20115;-68
2022/03/12 14:39:30;;;;;;;13.30;11.73;;;;;;;;;;4116585;34;20214;-67
2022/03/12 14:41:59;;;;;;;20.30;13.55;;;;;;;;;;4117013;34;20430;-68
2022/03/12 14:44:26;;;;;;;31.33;21.20;;;;;;;;;;4116070;34;20198;-68
2022/03/12 14:46:54;;;;;;;26.52;21.48;;;;;;;;;;4128737;34;20118;-68
2022/03/12 14:49:30;;;;;;;17.12;13.65;;;;;;;;;;4117171;34;20100;-66
2022/03/12 14:51:58;;;;;;;15.52;12.50;;;;;;;;;;4130282;34;20100;-64
2022/03/12 14:54:29;;;;;;;16.65;12.05;;;;;;;;;;4141541;34;20091;-64